Time;durP1;ratioP1;P1;durP2;ratioP2;P2;SDS_P1;SDS_P2;PMS_P1;PMS_P2;Temp;Humidity;BMP_temperature;BMP_pressure;BME280_temperature;BME280_humidity;BME280_pressure;Samples;Min_cycle;Max_cycle;Signal;HPM_P1;HPM_P2
2021/04/17 00:03:56;;;;;;;7.18;5.32;;;;;;;9.07;49.35;100936.28;10381562;28;20046;-70
2021/04/17 00:08:58;;;;;;;7.60;5.82;;;;;;;8.98;50.18;100936.84;10373639;28;20128;-69
2021/04/17 00:13:59;;;;;;;7.72;6.00;;;;;;;8.89;50.30;100924.13;10379756;28;20125;-69
2021/04/17 00:19:00;;;;;;;7.88;6.63;;;;;;;8.84;51.18;100914.69;10393100;28;20240;-69
2021/04/17 00:24:02;;;;;;;12.48;10.20;;;;;;;8.79;50.72;100921.22;10384471;28;20125;-68
2021/04/17 00:29:04;;;;;;;7.82;7.03;;;;;;;8.72;51.75;100920.75;10367426;28;20056;-69
2021/04/17 00:34:06;;;;;;;8.48;7.20;;;;;;;8.66;52.17;100913.16;10382130;28;20450;-69
2021/04/17 00:39:07;;;;;;;9.27;8.13;;;;;;;8.58;53.10;100908.31;10367791;28;20635;-69
2021/04/17 00:44:08;;;;;;;9.00;8.10;;;;;;;8.46;53.52;100904.63;10382550;28;20121;-69
2021/04/17 00:49:11;;;;;;;9.52;6.72;;;;;;;8.40;53.79;100899.66;10393710;28;20099;-68
2021/04/17 00:54:12;;;;;;;8.48;6.93;;;;;;;8.44;53.42;100897.72;10379045;28;20073;-69
2021/04/17 00:59:13;;;;;;;7.85;7.07;;;;;;;8.46;53.35;100903.78;10375234;28;20053;-69
2021/04/17 01:04:19;;;;;;;8.43;7.40;;;;;;;8.36;53.28;100892.84;10378105;28;20053;-69
2021/04/17 01:09:26;;;;;;;8.27;6.70;;;;;;;8.41;53.40;100911.13;10376344;28;20053;-69
2021/04/17 01:14:28;;;;;;;7.68;6.88;;;;;;;8.34;53.31;100905.34;10381910;28;20049;-69
2021/04/17 01:19:38;;;;;;;8.50;7.55;;;;;;;8.27;53.67;100915.47;10387864;28;20053;-68
2021/04/17 01:24:45;;;;;;;7.90;7.15;;;;;;;8.19;53.73;100908.91;10388889;28;20137;-69
2021/04/17 01:29:47;;;;;;;13.32;6.35;;;;;;;8.19;53.47;100906.28;10389678;28;20415;-69
2021/04/17 01:34:50;;;;;;;7.40;5.72;;;;;;;8.16;53.17;100901.16;10385816;28;20113;-68
2021/04/17 01:39:51;;;;;;;5.93;5.32;;;;;;;8.13;53.43;100908.31;10375823;28;20474;-70
2021/04/17 01:44:52;;;;;;;6.93;6.03;;;;;;;8.15;53.52;100897.63;10377949;28;20045;-69
2021/04/17 01:49:54;;;;;;;9.02;6.25;;;;;;;8.29;53.18;100886.22;10375430;28;20499;-69
2021/04/17 01:54:59;;;;;;;6.00;5.40;;;;;;;8.24;52.60;100890.91;10382397;28;20084;-70
2021/04/17 02:00:00;;;;;;;6.70;6.00;;;;;;;8.25;52.37;100879.38;10390681;28;20129;-68
2021/04/17 02:05:01;;;;;;;5.78;5.28;;;;;;;8.34;52.29;100883.28;10391035;28;20962;-68
2021/04/17 02:10:03;;;;;;;10.57;6.85;;;;;;;8.32;51.90;100881.56;10393780;28;20418;-70
2021/04/17 02:15:07;;;;;;;6.30;5.70;;;;;;;8.37;51.33;100889.22;10383852;28;20049;-68
2021/04/17 02:20:18;;;;;;;6.72;5.97;;;;;;;8.37;51.52;100878.63;10384362;28;20045;-68
2021/04/17 02:25:20;;;;;;;7.75;6.15;;;;;;;8.40;51.18;100878.44;10381855;28;20124;-68
2021/04/17 02:30:21;;;;;;;6.28;5.68;;;;;;;8.34;51.28;100878.81;10386379;28;20073;-70
2021/04/17 02:35:22;;;;;;;6.32;5.70;;;;;;;8.33;51.17;100874.44;10387327;28;20562;-70
2021/04/17 02:40:23;;;;;;;5.93;5.30;;;;;;;8.25;51.77;100868.75;10378411;28;20096;-69
2021/04/17 02:45:24;;;;;;;6.20;5.60;;;;;;;8.26;51.86;100863.38;10378209;28;20120;-68
2021/04/17 02:50:25;;;;;;;5.90;5.13;;;;;;;8.27;51.74;100866.84;10382246;28;20577;-71
2021/04/17 02:55:26;;;;;;;7.65;5.80;;;;;;;8.18;51.78;100865.66;10385457;28;20061;-69
2021/04/17 03:00:27;;;;;;;5.68;5.15;;;;;;;8.14;52.42;100872.91;10378815;28;20041;-69
2021/04/17 03:05:28;;;;;;;5.78;5.18;;;;;;;8.18;52.06;100872.72;10378879;28;20059;-69
2021/04/17 03:10:30;;;;;;;7.00;5.35;;;;;;;8.06;51.95;100855.75;10387484;28;20283;-69
2021/04/17 03:15:31;;;;;;;5.25;4.38;;;;;;;8.11;51.92;100859.84;10383411;28;20503;-70
2021/04/17 03:20:33;;;;;;;5.78;5.13;;;;;;;8.18;51.54;100851.50;10389955;28;20045;-69
2021/04/17 03:25:34;;;;;;;6.10;4.68;;;;;;;7.96;51.67;100845.72;10375394;28;20069;-69
2021/04/17 03:30:36;;;;;;;5.03;4.10;;;;;;;7.98;51.70;100845.63;10388285;28;20144;-69
2021/04/17 03:35:37;;;;;;;5.28;4.75;;;;;;;7.94;50.81;100834.34;10387916;28;20466;-67
2021/04/17 03:40:38;;;;;;;4.88;3.92;;;;;;;7.92;51.00;100840.69;10383466;28;20064;-69
2021/04/17 03:45:39;;;;;;;5.18;4.57;;;;;;;7.77;51.19;100838.00;10373123;28;20073;-68
2021/04/17 03:50:40;;;;;;;5.40;4.40;;;;;;;7.63;51.59;100835.34;10390107;28;20475;-69
2021/04/17 03:55:41;;;;;;;7.30;4.18;;;;;;;7.55;51.69;100835.78;10380339;28;20081;-68
2021/04/17 04:00:42;;;;;;;9.00;5.20;;;;;;;7.53;51.30;100839.47;10406184;28;20452;-69
2021/04/17 04:05:43;;;;;;;5.50;4.00;;;;;;;7.30;51.65;100849.59;10382904;28;20042;-67
2021/04/17 04:10:44;;;;;;;4.85;3.72;;;;;;;7.26;51.81;100837.47;10379309;28;20049;-69
2021/04/17 04:15:45;;;;;;;5.65;3.80;;;;;;;7.17;52.18;100859.16;10381629;28;20061;-67
2021/04/17 04:20:46;;;;;;;4.30;3.55;;;;;;;7.08;52.09;100848.16;10380689;28;20114;-69
2021/04/17 04:25:47;;;;;;;4.30;3.80;;;;;;;7.01;52.21;100849.44;10383737;28;20072;-69
2021/04/17 04:30:49;;;;;;;3.60;3.05;;;;;;;6.99;51.73;100853.97;10382583;28;20049;-69
2021/04/17 04:35:50;;;;;;;4.75;3.08;;;;;;;7.08;51.30;100858.72;10377005;28;20103;-70
2021/04/17 04:40:52;;;;;;;4.60;3.30;;;;;;;6.98;51.70;100860.22;10367978;28;20057;-68
2021/04/17 04:45:53;;;;;;;4.28;3.33;;;;;;;6.84;51.63;100862.75;10374282;28;20337;-70
2021/04/17 04:50:54;;;;;;;5.57;3.40;;;;;;;6.81;51.70;100871.72;10380058;28;20049;-69
2021/04/17 04:55:55;;;;;;;5.07;3.72;;;;;;;6.66;51.99;100875.19;10377630;28;20049;-69
2021/04/17 05:00:56;;;;;;;7.15;3.75;;;;;;;6.42;52.28;100866.81;10370885;28;20585;-67
2021/04/17 05:05:57;;;;;;;4.32;3.15;;;;;;;6.63;52.13;100860.34;10376745;28;20404;-69
2021/04/17 05:10:58;;;;;;;4.32;3.30;;;;;;;6.75;51.76;100863.28;10374638;28;20049;-68
2021/04/17 05:15:59;;;;;;;4.80;2.78;;;;;;;6.60;51.81;100860.50;10378794;28;20061;-68
2021/04/17 05:21:00;;;;;;;5.65;2.90;;;;;;;6.84;51.54;100879.47;10382215;28;20100;-68
2021/04/17 05:26:01;;;;;;;4.35;3.25;;;;;;;6.87;51.08;100874.00;10381019;28;20046;-70
2021/04/17 05:31:02;;;;;;;4.18;2.60;;;;;;;6.79;50.81;100875.41;10388232;28;20052;-70
2021/04/17 05:36:04;;;;;;;5.22;3.33;;;;;;;6.90;50.41;100873.88;10391014;28;20049;-68
2021/04/17 05:41:05;;;;;;;4.50;2.92;;;;;;;7.01;50.33;100891.81;10383212;28;20085;-68
2021/04/17 05:46:06;;;;;;;4.20;2.97;;;;;;;6.99;50.27;100887.53;10385005;28;20054;-68
2021/04/17 05:51:07;;;;;;;3.42;2.95;;;;;;;7.08;50.17;100887.84;10398512;28;20076;-70
2021/04/17 05:56:08;;;;;;;5.82;3.45;;;;;;;7.22;49.65;100880.94;10363081;28;20488;-71
2021/04/17 06:01:09;;;;;;;4.00;2.55;;;;;;;7.42;49.35;100872.72;10374668;28;20081;-70
2021/04/17 06:06:10;;;;;;;6.32;2.63;;;;;;;7.46;49.09;100878.72;10349609;28;20057;-70
2021/04/17 06:11:11;;;;;;;5.18;3.03;;;;;;;7.69;48.60;100887.97;10356436;28;20207;-70
2021/04/17 06:16:14;;;;;;;2.90;2.45;;;;;;;7.57;48.91;100893.97;10351422;28;20622;-70
2021/04/17 06:21:15;;;;;;;6.47;2.70;;;;;;;7.63;48.49;100893.63;10349760;28;20081;-71
2021/04/17 06:26:16;;;;;;;5.03;3.17;;;;;;;7.68;48.40;100883.59;10347486;28;20129;-70
2021/04/17 06:31:18;;;;;;;3.63;2.42;;;;;;;7.92;48.23;100888.41;10369709;28;20110;-73
2021/04/17 06:36:19;;;;;;;3.30;2.50;;;;;;;8.13;47.84;100880.97;10369372;28;20046;-70
2021/04/17 06:41:22;;;;;;;5.80;2.80;;;;;;;8.33;47.04;100882.41;10348681;28;20057;-68
2021/04/17 06:46:25;;;;;;;2.58;2.38;;;;;;;8.62;46.57;100882.47;10348924;28;20045;-70
2021/04/17 06:51:26;;;;;;;4.60;2.90;;;;;;;8.64;46.29;100893.81;10350988;28;20346;-69
2021/04/17 06:56:27;;;;;;;18.52;5.95;;;;;;;8.62;45.98;100893.06;10345850;28;20049;-70
2021/04/17 07:01:30;;;;;;;4.22;2.67;;;;;;;8.73;45.99;100895.06;10346477;28;20495;-70
2021/04/17 07:06:31;;;;;;;4.60;2.80;;;;;;;8.81;45.22;100898.94;10372209;28;20917;-71
2021/04/17 07:11:33;;;;;;;3.88;2.42;;;;;;;9.33;44.20;100888.56;10347389;28;20042;-71
2021/04/17 07:16:59;;;;;;;4.85;2.80;;;;;;;9.47;43.64;100896.50;10343415;28;20054;-71
2021/04/17 07:22:13;;;;;;;3.78;2.90;;;;;;;9.29;42.93;100885.28;10353415;28;20361;-70
2021/04/17 07:27:31;;;;;;;6.23;3.07;;;;;;;9.52;42.83;100902.38;10351583;28;20133;-70
2021/04/17 07:32:31;;;;;;;3.95;2.95;;;;;;;9.77;42.38;100882.13;10345097;28;21241;-70
2021/04/17 07:37:33;;;;;;;5.68;3.75;;;;;;;9.97;42.35;100883.44;10352631;28;20049;-70
2021/04/17 07:42:36;;;;;;;5.43;3.67;;;;;;;10.13;41.96;100885.88;10345709;28;20053;-70
2021/04/17 07:47:37;;;;;;;5.40;3.47;;;;;;;10.19;41.62;100879.31;10343047;28;20042;-69
2021/04/17 07:52:38;;;;;;;5.07;3.50;;;;;;;10.04;41.94;100884.75;10347929;28;20054;-70
2021/04/17 07:57:41;;;;;;;7.15;3.60;;;;;;;10.02;42.07;100888.44;10349597;28;20052;-66
2021/04/17 08:02:46;;;;;;;6.20;4.13;;;;;;;11.00;46.62;100887.88;10348470;28;20073;-70
2021/04/17 08:07:49;;;;;;;7.63;3.65;;;;;;;11.07;40.16;100883.81;10345270;28;20053;-70
2021/04/17 08:12:50;;;;;;;4.47;3.28;;;;;;;10.85;41.23;100885.34;10345909;28;20052;-69
2021/04/17 08:17:53;;;;;;;6.15;3.05;;;;;;;10.59;41.91;100882.72;10342347;28;20061;-70
2021/04/17 08:22:55;;;;;;;5.45;3.80;;;;;;;10.93;40.49;100887.47;10339950;28;20180;-70
2021/04/17 08:27:56;;;;;;;3.97;3.28;;;;;;;10.77;40.13;100882.38;10346441;28;20065;-70
2021/04/17 08:33:20;;;;;;;4.82;3.15;;;;;;;10.83;41.01;100881.09;10342823;28;20046;-69
2021/04/17 08:38:21;;;;;;;4.53;3.17;;;;;;;11.22;40.41;100877.34;10340349;28;20346;-70
2021/04/17 08:43:22;;;;;;;5.28;2.80;;;;;;;11.48;40.45;100880.78;10365438;28;20184;-70
2021/04/17 08:48:48;;;;;;;5.68;2.63;;;;;;;11.60;38.76;100878.97;10349706;28;20042;-70
2021/04/17 08:53:49;;;;;;;4.57;2.47;;;;;;;11.82;38.46;100880.06;10340624;28;20045;-68
2021/04/17 08:59:09;;;;;;;3.80;2.58;;;;;;;12.19;38.51;100882.63;10344030;28;20127;-69
2021/04/17 09:04:11;;;;;;;4.65;2.95;;;;;;;12.77;36.98;100865.63;10377057;28;20120;-70
2021/04/17 09:09:16;;;;;;;4.07;2.55;;;;;;;13.18;35.50;100877.47;10342005;28;20428;-71
2021/04/17 09:14:26;;;;;;;3.83;2.80;;;;;;;13.37;34.82;100869.66;10347193;28;20042;-69
2021/04/17 09:19:46;;;;;;;4.28;2.60;;;;;;;13.68;34.04;100867.13;10350975;28;20526;-69
2021/04/17 09:24:47;;;;;;;4.28;2.38;;;;;;;14.22;33.00;100865.22;10355489;28;20140;-70
2021/04/17 09:29:56;;;;;;;4.47;2.60;;;;;;;14.32;32.43;100862.59;10353993;28;20049;-71
2021/04/17 09:34:58;;;;;;;5.55;2.05;;;;;;;14.34;31.73;100863.31;10349759;28;20196;-69
2021/04/17 09:40:00;;;;;;;4.43;2.17;;;;;;;15.30;29.49;100849.53;10342420;28;20111;-70
2021/04/17 09:45:07;;;;;;;4.07;2.03;;;;;;;16.07;28.78;100840.59;10343061;28;20143;-71
2021/04/17 09:50:21;;;;;;;3.95;1.75;;;;;;;15.84;28.60;100837.41;10341800;28;21015;-70
2021/04/17 09:55:22;;;;;;;5.63;2.08;;;;;;;16.00;28.41;100827.91;10340138;28;20368;-69
2021/04/17 10:00:32;;;;;;;3.15;1.80;;;;;;;15.74;28.55;100828.47;10350013;28;20054;-70
2021/04/17 10:05:35;;;;;;;3.22;1.85;;;;;;;15.37;29.07;100822.03;10348480;28;20157;-70
2021/04/17 10:10:38;;;;;;;3.20;1.88;;;;;;;15.78;28.13;100823.69;10372381;28;20061;-70
2021/04/17 10:15:45;;;;;;;5.03;2.00;;;;;;;16.29;26.50;100813.53;10357488;28;20104;-70
2021/04/17 10:20:46;;;;;;;3.83;1.85;;;;;;;17.59;25.87;100815.97;10356348;28;20322;-70
2021/04/17 10:25:47;;;;;;;3.50;2.00;;;;;;;18.82;23.77;100797.00;10354234;28;20056;-71
2021/04/17 10:31:00;;;;;;;4.55;2.13;;;;;;;17.54;25.83;100807.53;10364098;28;20052;-71
2021/04/17 10:36:02;;;;;;;3.67;2.03;;;;;;;17.38;26.12;100793.94;10362455;28;20065;-70
2021/04/17 10:41:04;;;;;;;3.22;2.10;;;;;;;18.57;24.62;100796.09;10353998;28;20045;-70
2021/04/17 10:46:05;;;;;;;4.25;2.17;;;;;;;19.04;24.06;100794.72;10376602;28;20100;-70
2021/04/17 10:51:12;;;;;;;3.90;2.42;;;;;;;19.20;23.59;100788.50;10356115;28;20423;-69
2021/04/17 10:56:15;;;;;;;2.88;2.10;;;;;;;18.09;25.46;100789.44;10361588;28;20515;-70
2021/04/17 11:01:27;;;;;;;4.60;2.20;;;;;;;16.02;27.60;100801.78;10357992;28;20494;-70
2021/04/17 11:06:32;;;;;;;5.47;2.22;;;;;;;16.17;27.56;100794.94;10366285;28;20102;-70
2021/04/17 11:16:54;;;;;;;2.33;1.65;;;;;;;21.07;20.91;100763.00;10224806;28;20135;-64
2021/04/17 11:22:23;;;;;;;3.13;1.85;;;;;;;19.76;21.78;100773.31;10253057;28;20525;-66
2021/04/17 11:27:25;;;;;;;3.08;1.30;;;;;;;18.06;24.20;100776.28;10250596;28;20097;-64
2021/04/17 11:32:26;;;;;;;2.58;1.52;;;;;;;16.98;25.86;100771.03;10252506;28;20117;-68
2021/04/17 11:37:30;;;;;;;3.13;1.65;;;;;;;17.93;24.71;100766.78;10252641;28;20050;-66
2021/04/17 11:42:31;;;;;;;4.70;1.80;;;;;;;17.82;25.08;100780.50;10251709;28;20161;-66
2021/04/17 11:47:32;;;;;;;4.97;2.00;;;;;;;16.95;26.23;100767.66;10251368;28;20819;-65
2021/04/17 11:52:33;;;;;;;5.63;2.28;;;;;;;17.37;25.98;100771.59;10254478;28;20715;-65
2021/04/17 11:57:34;;;;;;;3.47;2.17;;;;;;;16.51;27.22;100764.78;10248704;28;20055;-65
2021/04/17 12:02:35;;;;;;;2.90;1.88;;;;;;;15.51;28.54;100756.34;10250308;28;20353;-65
2021/04/17 12:07:36;;;;;;;6.20;2.50;;;;;;;14.95;29.47;100757.94;10251915;28;20058;-66
2021/04/17 12:12:37;;;;;;;4.75;2.78;;;;;;;15.08;30.06;100771.03;10250361;28;20467;-66
2021/04/17 12:17:38;;;;;;;3.42;2.13;;;;;;;14.91;30.21;100748.47;10247639;28;20559;-65
2021/04/17 12:22:40;;;;;;;2.97;1.95;;;;;;;15.11;30.02;100752.00;10245779;28;20051;-66
2021/04/17 12:27:41;;;;;;;4.18;1.77;;;;;;;14.75;30.39;100746.31;10242811;28;20061;-66
2021/04/17 12:32:42;;;;;;;6.20;3.78;;;;;;;14.66;30.26;100755.19;10246939;28;20153;-65
2021/04/17 12:37:43;;;;;;;3.35;1.63;;;;;;;14.28;30.95;100768.28;10248777;28;20089;-64
2021/04/17 12:42:44;;;;;;;3.20;1.95;;;;;;;14.11;31.80;100743.00;10249389;28;20082;-63
2021/04/17 12:47:45;;;;;;;4.90;2.13;;;;;;;13.86;32.39;100751.50;10249605;28;20179;-64
2021/04/17 12:52:47;;;;;;;2.95;1.63;;;;;;;13.69;32.76;100748.44;10249108;28;20059;-65
2021/04/17 12:57:48;;;;;;;2.75;1.90;;;;;;;13.95;32.36;100740.81;10248902;28;20109;-64
2021/04/17 13:02:49;;;;;;;4.88;2.22;;;;;;;14.75;31.19;100751.66;10249360;28;20069;-66
2021/04/17 13:07:50;;;;;;;4.30;2.45;;;;;;;15.16;30.52;100736.34;10253027;28;20054;-65
2021/04/17 13:12:51;;;;;;;3.40;2.47;;;;;;;15.55;29.95;100725.56;10253044;28;20558;-66
2021/04/17 13:17:52;;;;;;;4.18;2.20;;;;;;;15.67;29.40;100717.31;10249873;28;20053;-65
2021/04/17 13:22:55;;;;;;;5.53;2.83;;;;;;;14.96;31.29;100737.31;10243709;28;20077;-65
2021/04/17 13:27:57;;;;;;;4.53;2.03;;;;;;;14.95;30.99;100724.88;10248786;28;20436;-65
2021/04/17 13:32:58;;;;;;;2.80;1.73;;;;;;;14.84;30.91;100715.16;10248147;28;20047;-65
2021/04/17 13:38:03;;;;;;;3.20;2.30;;;;;;;14.38;31.92;100720.13;10249029;28;20070;-66
2021/04/17 13:43:04;;;;;;;5.40;2.10;;;;;;;14.41;31.91;100703.78;10249373;28;20043;-65
2021/04/17 13:48:05;;;;;;;6.20;2.08;;;;;;;14.38;32.42;100705.88;10246690;28;20085;-66
2021/04/17 13:53:07;;;;;;;5.28;2.25;;;;;;;14.07;33.14;100706.78;10255141;28;20051;-67
2021/04/17 13:58:08;;;;;;;3.97;2.20;;;;;;;13.38;34.53;100715.44;10250077;28;20505;-67
2021/04/17 14:03:09;;;;;;;4.53;2.10;;;;;;;13.32;34.75;100705.25;10253174;28;20688;-66
2021/04/17 14:08:10;;;;;;;4.18;2.05;;;;;;;13.44;34.48;100710.41;10257592;28;20133;-66
2021/04/17 14:13:12;;;;;;;4.15;2.88;;;;;;;13.31;34.78;100680.31;10252663;28;20207;-66
2021/04/17 14:18:12;;;;;;;3.05;2.17;;;;;;;13.06;35.21;100682.41;10251617;28;20141;-65
2021/04/17 14:23:31;;;;;;;4.63;2.30;;;;;;;12.86;36.38;100696.56;10250167;28;20719;-66
2021/04/17 14:28:34;;;;;;;5.07;2.35;;;;;;;12.53;36.73;100701.03;10253935;28;20158;-67
2021/04/17 14:33:36;;;;;;;3.03;2.00;;;;;;;12.30;37.55;100693.09;10251581;28;20054;-66
2021/04/17 14:38:39;;;;;;;5.22;2.53;;;;;;;12.25;37.50;100681.94;10252810;28;20151;-66
2021/04/17 14:43:41;;;;;;;4.78;2.42;;;;;;;12.09;37.72;100687.66;10252411;28;20086;-67
2021/04/17 14:48:43;;;;;;;9.07;3.80;;;;;;;12.02;38.26;100673.97;10252896;28;20058;-66
2021/04/17 14:53:44;;;;;;;4.95;2.60;;;;;;;12.18;37.63;100689.59;10253181;28;20525;-67
2021/04/17 14:58:46;;;;;;;4.93;2.75;;;;;;;12.02;38.09;100694.44;10252256;28;20058;-65
2021/04/17 15:03:46;;;;;;;7.50;3.15;;;;;;;11.72;38.51;100655.03;10248189;28;20058;-66
2021/04/17 15:08:52;;;;;;;4.05;2.65;;;;;;;11.98;38.21;100680.53;10245503;28;20062;-65
2021/04/17 15:13:54;;;;;;;3.63;2.60;;;;;;;11.82;38.90;100688.00;10242502;28;20055;-66
2021/04/17 15:18:56;;;;;;;5.72;2.47;;;;;;;11.97;38.95;100668.13;10250024;28;20113;-66
2021/04/17 15:23:58;;;;;;;5.43;2.67;;;;;;;12.09;38.75;100673.47;10252628;28;20161;-66
2021/04/17 15:29:02;;;;;;;4.68;2.63;;;;;;;11.91;38.90;100654.41;10251661;28;20133;-65
2021/04/17 15:34:03;;;;;;;3.25;2.63;;;;;;;11.81;39.01;100676.50;10248133;28;20177;-65
2021/04/17 15:39:05;;;;;;;4.90;2.67;;;;;;;11.61;39.70;100679.88;10252194;28;20047;-65
2021/04/17 15:44:09;;;;;;;3.55;2.80;;;;;;;11.42;40.09;100670.63;10249514;28;20047;-64
2021/04/17 15:49:10;;;;;;;3.58;2.80;;;;;;;11.61;39.96;100664.72;10251697;28;20276;-65
2021/04/17 15:54:11;;;;;;;5.50;2.83;;;;;;;11.73;39.30;100654.06;10251406;28;20056;-65
2021/04/17 16:15:02;;;;;;;8.45;2.75;;;;;;;11.76;38.73;100656.50;10266522;28;20074;-65
2021/04/17 16:20:04;;;;;;;3.40;2.22;;;;;;;11.76;38.60;100633.31;10249859;28;20146;-68
2021/04/17 16:25:06;;;;;;;3.83;2.30;;;;;;;11.79;38.57;100637.56;10249000;28;20054;-67
2021/04/17 16:30:07;;;;;;;4.60;3.00;;;;;;;11.79;38.70;100646.41;10250104;28;20113;-66
2021/04/17 16:35:10;;;;;;;4.70;2.30;;;;;;;11.81;38.56;100660.50;10249270;28;20584;-66
2021/04/17 16:40:11;;;;;;;5.28;2.38;;;;;;;11.48;38.48;100637.31;10245653;28;20246;-67
2021/04/17 16:45:15;;;;;;;4.35;1.90;;;;;;;11.48;38.32;100658.63;10244293;28;20572;-64
2021/04/17 16:50:17;;;;;;;2.90;1.65;;;;;;;11.23;38.67;100633.91;10225649;28;20090;-65
2021/04/17 16:55:18;;;;;;;4.65;2.03;;;;;;;11.16;38.91;100645.16;10230480;28;20054;-65
2021/04/17 17:00:21;;;;;;;3.83;2.28;;;;;;;11.27;39.19;100651.38;10238801;28;20054;-67
2021/04/17 17:05:23;;;;;;;6.00;3.00;;;;;;;11.28;38.95;100655.69;10246519;28;20046;-65
2021/04/17 17:10:25;;;;;;;5.30;2.40;;;;;;;11.19;39.12;100645.75;10247278;28;20047;-64
2021/04/17 17:15:26;;;;;;;4.18;2.10;;;;;;;11.31;38.51;100652.81;10246454;28;20189;-65
2021/04/17 17:20:45;;;;;;;4.82;3.08;;;;;;;11.24;39.11;100656.91;10247605;28;20221;-65
2021/04/17 17:25:46;;;;;;;5.53;2.78;;;;;;;10.97;38.94;100638.56;10242771;28;21084;-67
2021/04/17 17:30:47;;;;;;;4.07;2.65;;;;;;;11.08;38.83;100661.69;10245142;28;20715;-66
2021/04/17 17:35:48;;;;;;;4.70;2.50;;;;;;;10.99;39.13;100663.28;10247021;28;20600;-67
2021/04/17 17:40:49;;;;;;;4.72;3.13;;;;;;;10.94;39.13;100650.31;10248488;28;20156;-64
2021/04/17 17:45:50;;;;;;;4.63;2.83;;;;;;;11.09;39.05;100668.75;10246741;28;20543;-67
2021/04/17 17:50:51;;;;;;;4.60;3.05;;;;;;;11.00;39.48;100670.28;10245915;28;20699;-66
2021/04/17 17:55:52;;;;;;;5.18;2.60;;;;;;;10.94;39.36;100655.63;10245999;28;20241;-65
2021/04/17 18:00:53;;;;;;;2.83;2.47;;;;;;;11.02;39.60;100667.50;10245182;28;20165;-63
2021/04/17 18:05:54;;;;;;;6.35;3.72;;;;;;;11.00;39.39;100674.78;10248005;28;20157;-64
2021/04/17 18:10:55;;;;;;;4.57;2.83;;;;;;;10.95;39.72;100680.44;10249596;28;20540;-65
2021/04/17 18:15:56;;;;;;;2.92;2.50;;;;;;;10.92;39.66;100678.84;10248329;28;20050;-66
2021/04/17 18:20:57;;;;;;;3.78;2.75;;;;;;;10.85;39.86;100666.97;10249600;28;20260;-66
2021/04/17 18:26:00;;;;;;;4.22;3.05;;;;;;;10.93;40.03;100680.56;10246420;28;20039;-67
2021/04/17 18:31:02;;;;;;;7.03;4.60;;;;;;;11.00;40.44;100674.78;10248431;28;20098;-66
2021/04/17 18:36:03;;;;;;;7.25;4.47;;;;;;;10.98;39.92;100682.03;10250774;28;20073;-66
2021/04/17 18:41:05;;;;;;;6.82;4.10;;;;;;;11.00;40.21;100691.59;10253771;28;20579;-65
2021/04/17 18:46:06;;;;;;;4.40;3.15;;;;;;;11.02;40.33;100683.47;10255416;28;20082;-67
2021/04/17 18:51:07;;;;;;;3.63;2.97;;;;;;;10.88;39.99;100677.38;10253923;28;20440;-65
2021/04/17 18:56:10;;;;;;;5.78;3.10;;;;;;;10.99;40.42;100689.91;10253607;28;20082;-66
2021/04/17 19:01:11;;;;;;;4.47;3.25;;;;;;;10.96;39.99;100683.00;10254466;28;20086;-65
2021/04/17 19:06:12;;;;;;;4.93;3.47;;;;;;;10.94;40.22;100690.25;10796528;23;20129;-65
2021/04/17 19:11:13;;;;;;;5.35;3.67;;;;;;;10.95;40.13;100694.59;10292668;28;20053;-66
2021/04/17 19:16:19;;;;;;;4.93;3.45;;;;;;;10.87;40.18;100691.69;10327952;28;20388;-66
2021/04/17 19:21:21;;;;;;;5.63;3.90;;;;;;;10.74;40.40;100677.56;10344915;28;20046;-66
2021/04/17 19:26:22;;;;;;;4.97;3.85;;;;;;;10.69;40.56;100677.06;10337726;28;20057;-66
2021/04/17 19:31:23;;;;;;;5.78;4.10;;;;;;;10.76;40.73;100683.63;10334752;28;20046;-65
2021/04/17 19:36:24;;;;;;;5.32;4.03;;;;;;;10.76;41.14;100683.63;10331448;28;20172;-66
2021/04/17 19:41:25;;;;;;;5.85;4.60;;;;;;;10.76;41.26;100688.94;10331453;28;20061;-64
2021/04/17 19:46:26;;;;;;;6.50;4.93;;;;;;;10.65;41.81;100675.59;10326622;28;20076;-66
2021/04/17 19:51:28;;;;;;;7.03;4.88;;;;;;;10.83;41.84;100689.38;10327341;28;20552;-67
2021/04/17 19:56:30;;;;;;;5.47;4.63;;;;;;;10.78;41.90;100693.22;10330031;28;20073;-66
2021/04/17 20:01:35;;;;;;;7.47;4.78;;;;;;;10.79;41.66;100684.28;10330717;28;20627;-65
2021/04/17 20:06:36;;;;;;;6.93;4.93;;;;;;;10.76;41.53;100683.63;10332246;28;20512;-65
2021/04/17 20:11:38;;;;;;;6.47;4.45;;;;;;;10.76;41.66;100683.63;10331418;28;20054;-66
2021/04/17 20:16:39;;;;;;;6.60;5.40;;;;;;;10.64;41.79;100671.22;10328042;28;20133;-65
2021/04/17 20:21:42;;;;;;;8.52;5.75;;;;;;;10.68;41.93;100678.03;10324743;28;20046;-65
2021/04/17 20:26:43;;;;;;;7.35;5.05;;;;;;;10.74;41.77;100688.22;10334473;28;20046;-65
2021/04/17 20:31:44;;;;;;;6.35;4.78;;;;;;;10.64;41.86;100657.91;10330415;28;20082;-65
2021/04/17 20:36:45;;;;;;;6.05;4.70;;;;;;;10.63;41.55;100664.19;10327434;28;20049;-66
2021/04/17 20:41:46;;;;;;;8.25;5.22;;;;;;;10.75;41.75;100692.59;10328396;28;20049;-65
2021/04/17 20:46:47;;;;;;;13.50;7.70;;;;;;;10.65;42.32;100675.59;10330428;28;20112;-67
2021/04/17 20:51:48;;;;;;;12.10;6.88;;;;;;;10.73;41.63;100689.19;10331539;28;20073;-65
2021/04/17 20:56:49;;;;;;;10.35;7.00;;;;;;;10.85;41.89;100692.75;10330287;28;20058;-65
2021/04/17 21:01:51;;;;;;;8.38;5.82;;;;;;;10.66;41.85;100671.97;10330713;28;20139;-65
2021/04/17 21:06:57;;;;;;;13.25;7.53;;;;;;;10.66;41.71;100679.94;10324179;28;20085;-66
2021/04/17 21:11:58;;;;;;;6.88;5.10;;;;;;;10.66;41.89;100682.59;10324585;28;20046;-65
2021/04/17 21:16:59;;;;;;;5.90;4.30;;;;;;;10.64;42.13;100680.06;10320938;28;20492;-65
2021/04/17 21:22:00;;;;;;;8.95;4.60;;;;;;;10.63;41.81;100672.19;10328153;28;20046;-65
2021/04/17 21:27:01;;;;;;;6.68;4.18;;;;;;;10.65;41.58;100667.63;10328421;28;20049;-66
2021/04/17 21:32:02;;;;;;;7.35;4.45;;;;;;;10.50;41.59;100651.81;10331907;28;20069;-67
2021/04/17 21:37:04;;;;;;;5.43;4.80;;;;;;;10.62;41.77;100668.69;10323823;28;21250;-66
2021/04/17 21:42:05;;;;;;;6.30;4.70;;;;;;;10.65;41.75;100675.59;10323815;28;20222;-66
2021/04/17 21:47:06;;;;;;;7.50;4.70;;;;;;;10.50;42.42;100656.28;10322060;28;20088;-66
2021/04/17 21:52:07;;;;;;;5.80;4.60;;;;;;;10.50;42.62;100661.63;10334905;28;20046;-66
2021/04/17 21:57:08;;;;;;;7.05;5.30;;;;;;;10.60;42.54;100681.28;10339930;28;20054;-64
2021/04/17 22:02:09;;;;;;;7.63;5.70;;;;;;;10.57;43.19;100673.50;10345129;28;20181;-66
2021/04/17 22:07:10;;;;;;;7.40;5.82;;;;;;;10.53;43.40;100670.22;10323213;28;20065;-65
2021/04/17 22:12:12;;;;;;;7.55;5.55;;;;;;;10.52;43.69;100673.81;10335665;28;20070;-65
2021/04/17 22:17:13;;;;;;;8.80;6.43;;;;;;;10.51;43.95;100664.16;10333812;28;20132;-65
2021/04/17 22:22:14;;;;;;;7.35;5.50;;;;;;;10.48;44.07;100675.03;10336980;28;20570;-66
2021/04/17 22:27:15;;;;;;;7.88;5.65;;;;;;;10.24;44.44;100646.56;10337847;28;20080;-65
2021/04/17 22:32:16;;;;;;;8.27;5.70;;;;;;;10.31;44.90;100651.44;10340767;28;20061;-65
2021/04/17 22:37:17;;;;;;;6.65;5.70;;;;;;;10.34;44.97;100661.88;10347879;28;20065;-65
2021/04/17 22:42:18;;;;;;;8.38;5.82;;;;;;;10.24;44.96;100651.03;10351462;28;20050;-65
2021/04/17 22:47:19;;;;;;;7.18;5.40;;;;;;;10.23;45.03;100647.50;10343812;28;20120;-66
2021/04/17 22:52:20;;;;;;;6.93;5.70;;;;;;;10.15;45.04;100633.06;10359031;28;20082;-66
2021/04/17 22:57:22;;;;;;;7.72;5.95;;;;;;;10.26;44.94;100644.63;10343670;28;20484;-66
2021/04/17 23:02:23;;;;;;;6.60;5.75;;;;;;;10.22;45.19;100637.84;10332560;28;20054;-64
2021/04/17 23:07:25;;;;;;;6.53;5.32;;;;;;;10.30;44.93;100649.72;10337867;28;20343;-64
2021/04/17 23:12:26;;;;;;;7.32;5.03;;;;;;;10.24;45.54;100654.53;10339725;28;20049;-65
2021/04/17 23:17:26;;;;;;;6.20;5.60;;;;;;;10.21;45.94;100661.91;10351194;28;20070;-66
2021/04/17 23:22:28;;;;;;;7.38;5.70;;;;;;;10.19;45.96;100658.50;10333727;28;20073;-65
2021/04/17 23:27:29;;;;;;;7.75;5.82;;;;;;;10.21;45.68;100641.47;10338099;28;20050;-65
2021/04/17 23:32:29;;;;;;;7.70;6.10;;;;;;;10.26;46.13;100649.94;10344316;28;20101;-66
2021/04/17 23:37:31;;;;;;;7.43;5.32;;;;;;;10.23;46.27;100644.84;10362016;28;20058;-66